Ayden, NC

7:37 AM EST on December 05, 2016 (GMT -0500)
Sunrise Park | | Change Station

Elev 56 ft 35.47 °N, 77.41 °W | Updated 21 seconds ago

Rain
Rain
45.0 °F
Feels Like 45 °F
N
0.0
Wind Variable Wind from NW

Today
High -- | Low -- °F
--% Chance of Precip.
Yesterday
High -- | Low -- °F
Precip. -- in
Pressure 30.00 in
Visibility 10.0 miles
Clouds Overcast 600 ft
Windchill 45 °F
Dew Point 43 °F
Humidity 96%
Rainfall 0.02 in
Snow Depth Not available.
7:04 AM 4:56 PM
Waxing Crescent, 31% visible
METAR KPGV 051225Z AUTO 36008KT 10SM OVC006 07/07 A3000 RMK AO2
Pressure 30.00 in
Visibility 10.0 miles
Clouds Overcast 600 ft
Windchill 45 °F
Dew Point 43 °F
Humidity 96%
Rainfall 0.02 in
Snow Depth Not available.
7:04 AM 4:56 PM
Waxing Crescent, 31% visible
METAR KPGV 051225Z AUTO 36008KT 10SM OVC006 07/07 A3000 RMK AO2

10-Day Weather Forecast

Almanac

Astronomy

Dec. 05, 2016 Rise Set
Actual Time
Civil Twilight
Nautical Twilight
Astronomical Twilight
Moon
Length of Visible Light
Length of Day
Tomorrow will be .
, % of the Moon is Illuminated

Today's Extremes

State Highs State Lows

Community

WunderPhotos

Upload Photos

1,955,777 photos uploaded!

WunderBlog® & News

Nearby

Air Quality

  Air Quality AQ Index Pollutant
Not available.

Snow Depth

Station Depth Elevation

Earthquake Activity

City Distance Mag. Time & Date
Minimum magnitude displayed is 2.5.

Coastal Water Temperatures

Place Temperature

Stations

Nearby Weather Stations

Station Location Temp. Windchill Dew Point Humidity Wind Precip. Elev Updated Type
                   

Watches & Warnings

There are currently no watches in effect.